createdAt,value
2022-12-15T00:02:35.068Z,41.47
2022-12-15T00:05:20.675Z,32.77
2022-12-15T00:08:08.175Z,39.87
2022-12-15T00:10:53.711Z,38.13
2022-12-15T00:13:39.323Z,41.70
2022-12-15T00:16:26.170Z,39.27
2022-12-15T00:19:12.008Z,36.17
2022-12-15T00:21:57.639Z,43.87
2022-12-15T00:24:43.176Z,37.70
2022-12-15T00:27:28.642Z,38.43
2022-12-15T00:30:14.351Z,36.27
2022-12-15T00:33:00.259Z,34.60
2022-12-15T00:35:45.835Z,38.43
2022-12-15T00:38:33.430Z,38.77
2022-12-15T00:41:01.487Z,36.13
2022-12-15T00:43:32.471Z,29.00
2022-12-15T00:46:19.270Z,36.30
2022-12-15T00:48:46.768Z,37.47
2022-12-15T00:51:14.497Z,36.13
2022-12-15T00:54:01.218Z,35.47
2022-12-15T00:56:47.376Z,41.40
2022-12-15T00:59:33.852Z,40.13
2022-12-15T01:02:19.887Z,38.43
2022-12-15T01:05:05.852Z,33.63
2022-12-15T01:07:51.612Z,36.40
2022-12-15T01:10:37.941Z,33.63
2022-12-15T01:13:24.179Z,35.13
2022-12-15T01:16:09.606Z,36.93
2022-12-15T01:18:55.661Z,34.40
2022-12-15T01:21:24.934Z,29.73
2022-12-15T01:23:53.272Z,35.97
2022-12-15T01:26:20.437Z,30.27
2022-12-15T01:28:47.408Z,33.30
2022-12-15T01:31:14.862Z,40.37
2022-12-15T01:33:44.712Z,37.73
2022-12-15T01:36:11.830Z,33.63
2022-12-15T01:38:38.842Z,42.03
2022-12-15T01:41:09.612Z,44.40
2022-12-15T01:43:38.157Z,34.77
2022-12-15T01:46:22.306Z,35.70
2022-12-15T01:49:16.411Z,43.37
2022-12-15T01:51:47.594Z,40.17
2022-12-15T01:54:43.868Z,40.13
2022-12-15T01:57:20.449Z,36.33
2022-12-15T01:59:52.198Z,37.80
2022-12-15T02:02:22.493Z,37.20
2022-12-15T02:04:51.550Z,36.27
2022-12-15T02:07:19.067Z,33.30
2022-12-15T02:09:48.654Z,38.87
2022-12-15T02:12:42.446Z,33.77
2022-12-15T02:15:37.248Z,34.60
2022-12-15T02:18:24.713Z,33.10
2022-12-15T02:21:15.100Z,34.60
2022-12-15T02:24:37.245Z,40.53
2022-12-15T02:27:36.980Z,38.53
2022-12-15T02:30:22.077Z,38.17
2022-12-15T02:33:06.568Z,34.30
2022-12-15T02:35:56.326Z,39.17
2022-12-15T02:38:37.879Z,33.77
2022-12-15T02:41:06.292Z,33.33
2022-12-15T02:43:38.046Z,32.77
2022-12-15T02:46:39.293Z,32.67
2022-12-15T02:49:53.082Z,35.43
2022-12-15T03:02:01.514Z,45.87
2022-12-15T03:07:11.090Z,36.00
2022-12-15T03:09:38.306Z,30.13
2022-12-15T03:12:05.865Z,35.33
2022-12-15T03:14:32.768Z,31.00
2022-12-15T03:16:59.820Z,33.30
2022-12-15T03:19:26.938Z,34.40
2022-12-15T03:21:53.886Z,32.80
2022-12-15T03:24:20.845Z,34.33
2022-12-15T03:26:50.189Z,32.73
2022-12-15T03:29:18.321Z,32.93
2022-12-15T03:31:46.048Z,34.10
2022-12-15T03:34:17.119Z,35.90
2022-12-15T03:36:43.968Z,34.47
2022-12-15T03:39:11.144Z,32.07
2022-12-15T03:41:38.202Z,31.63
2022-12-15T03:44:05.360Z,37.40
2022-12-15T03:46:32.257Z,35.40
2022-12-15T03:48:59.115Z,36.33
2022-12-15T03:51:26.238Z,38.10
2022-12-15T03:53:54.684Z,36.43
2022-12-15T03:56:22.167Z,35.90
2022-12-15T03:58:49.200Z,33.97
2022-12-15T04:01:30.953Z,33.60
2022-12-15T04:04:00.929Z,34.73
2022-12-15T04:06:29.636Z,34.43
2022-12-15T04:08:59.507Z,31.70
2022-12-15T04:11:26.478Z,38.90
2022-12-15T04:13:53.408Z,37.87
2022-12-15T04:16:20.721Z,38.90
2022-12-15T04:19:08.154Z,31.83
2022-12-15T04:21:35.132Z,38.33
2022-12-15T04:24:20.711Z,36.33
2022-12-15T04:27:06.064Z,37.30
2022-12-15T04:29:51.460Z,34.80
2022-12-15T04:32:36.813Z,33.03
2022-12-15T04:35:22.553Z,37.27
2022-12-15T04:38:07.933Z,35.03
2022-12-15T04:40:53.743Z,37.67
2022-12-15T04:43:39.079Z,30.10
2022-12-15T04:46:24.767Z,41.77
2022-12-15T04:49:10.535Z,47.20
2022-12-15T04:51:55.948Z,38.73
2022-12-15T04:54:41.539Z,33.50
2022-12-15T04:57:28.440Z,42.83
2022-12-15T05:00:14.066Z,31.77
2022-12-15T05:02:59.496Z,34.73
2022-12-15T05:05:45.125Z,37.53
2022-12-15T05:08:30.754Z,31.70
2022-12-15T05:11:18.982Z,35.37
2022-12-15T05:14:04.509Z,37.93
2022-12-15T05:16:50.318Z,33.30
2022-12-15T05:19:35.712Z,34.50
2022-12-15T05:22:21.411Z,37.23
2022-12-15T05:25:07.091Z,34.60
2022-12-15T05:27:52.424Z,36.90
2022-12-15T05:30:38.087Z,33.83
2022-12-15T05:33:06.873Z,37.70
2022-12-15T05:35:33.746Z,33.93
2022-12-15T05:38:00.595Z,39.43
2022-12-15T05:40:27.479Z,35.70
2022-12-15T05:42:57.463Z,33.33
2022-12-15T05:45:24.425Z,40.57
2022-12-15T05:47:55.163Z,36.97
2022-12-15T05:50:25.417Z,30.90
2022-12-15T05:52:52.400Z,37.30
2022-12-15T05:55:20.090Z,35.80
2022-12-15T05:57:54.223Z,37.67
2022-12-15T06:00:21.973Z,40.27
2022-12-15T06:02:49.934Z,37.03
2022-12-15T06:05:17.836Z,35.30
2022-12-15T06:07:45.080Z,34.57
2022-12-15T06:10:12.465Z,39.97
2022-12-15T06:12:39.359Z,32.57
2022-12-15T06:15:09.051Z,38.97
2022-12-15T06:17:36.411Z,37.40
2022-12-15T06:20:04.227Z,39.13
2022-12-15T06:22:31.547Z,37.83
2022-12-15T06:24:59.681Z,36.57
2022-12-15T06:27:26.556Z,35.07
2022-12-15T06:29:53.803Z,38.77
2022-12-15T06:32:21.952Z,28.47
2022-12-15T06:34:49.728Z,39.73
2022-12-15T06:37:16.632Z,35.43
2022-12-15T06:39:43.895Z,40.43
2022-12-15T06:42:11.094Z,39.60
2022-12-15T06:44:38.256Z,34.93
2022-12-15T06:47:06.026Z,35.73
2022-12-15T06:49:33.487Z,37.53
2022-12-15T06:52:00.769Z,41.83
2022-12-15T06:54:28.965Z,43.53
2022-12-15T06:56:56.231Z,40.57
2022-12-15T06:59:23.606Z,44.40
2022-12-15T07:01:51.776Z,35.97
2022-12-15T07:04:19.187Z,37.67
2022-12-15T07:06:46.419Z,37.30
2022-12-15T07:09:17.351Z,40.67
2022-12-15T07:11:45.198Z,38.60
2022-12-15T07:14:12.462Z,48.33
2022-12-15T07:16:39.530Z,40.50
2022-12-15T07:19:07.784Z,40.70
2022-12-15T07:21:35.037Z,43.60
2022-12-15T07:24:03.150Z,38.80
2022-12-15T07:26:30.662Z,40.07
2022-12-15T07:28:58.022Z,39.97
2022-12-15T07:31:25.924Z,36.67
2022-12-15T07:33:55.126Z,37.40
2022-12-15T07:36:22.871Z,37.00
2022-12-15T07:38:50.229Z,39.50
2022-12-15T07:41:19.048Z,40.03
2022-12-15T07:43:47.192Z,43.77
2022-12-15T07:46:14.324Z,38.47
2022-12-15T07:48:41.430Z,52.83
2022-12-15T07:51:17.170Z,49.67
2022-12-15T07:53:47.301Z,45.93
2022-12-15T07:56:14.215Z,51.30
2022-12-15T07:58:41.905Z,54.93
2022-12-15T08:01:12.490Z,55.40
2022-12-15T08:03:40.610Z,62.23
2022-12-15T08:06:13.548Z,59.73
2022-12-15T08:08:41.295Z,61.20
2022-12-15T08:11:10.264Z,62.20
2022-12-15T08:14:01.995Z,64.80
2022-12-15T08:16:25.596Z,56.00
2022-12-15T08:18:52.616Z,56.03
2022-12-15T08:21:19.468Z,57.47
2022-12-15T08:23:46.387Z,59.30
2022-12-15T08:26:16.229Z,52.67
2022-12-15T08:28:44.331Z,47.90
2022-12-15T08:31:17.782Z,50.10
2022-12-15T08:33:45.660Z,48.03
2022-12-15T08:36:13.994Z,36.97
2022-12-15T08:38:42.871Z,30.03
2022-12-15T08:41:23.049Z,32.20
2022-12-15T08:43:51.468Z,34.33
2022-12-15T08:46:20.407Z,31.40
2022-12-15T08:48:47.488Z,32.77
2022-12-15T08:51:15.182Z,34.50
2022-12-15T08:53:42.540Z,37.33
2022-12-15T08:56:13.879Z,33.10
2022-12-15T08:58:43.210Z,31.83
2022-12-15T09:01:19.031Z,34.07
2022-12-15T09:03:50.544Z,38.03
2022-12-15T09:06:23.026Z,29.13
2022-12-15T09:08:50.527Z,32.90
2022-12-15T09:11:18.147Z,28.37
2022-12-15T09:13:45.074Z,34.00
2022-12-15T09:16:17.144Z,31.93
2022-12-15T09:18:52.537Z,30.93
2022-12-15T09:21:22.479Z,25.87
2022-12-15T09:23:51.964Z,29.43
2022-12-15T09:26:21.055Z,30.40
2022-12-15T09:28:50.086Z,31.30
2022-12-15T09:31:26.527Z,30.43
2022-12-15T09:33:55.429Z,37.23
2022-12-15T09:36:22.831Z,32.23
2022-12-15T09:38:50.099Z,29.87
2022-12-15T09:41:29.620Z,31.93
2022-12-15T09:44:05.344Z,41.70
2022-12-15T09:47:30.942Z,37.00
2022-12-15T09:49:58.912Z,36.47
2022-12-15T09:53:00.685Z,34.90
2022-12-15T09:55:30.444Z,35.60
2022-12-15T09:58:11.529Z,31.23
2022-12-15T10:00:44.744Z,30.00
2022-12-15T10:04:04.144Z,30.10
2022-12-15T10:07:23.407Z,29.90
2022-12-15T10:09:50.307Z,32.33
2022-12-15T10:12:24.859Z,28.83
2022-12-15T10:14:57.595Z,30.30
2022-12-15T10:17:59.934Z,28.40
2022-12-15T10:20:28.936Z,29.50
2022-12-15T10:23:01.956Z,29.33
2022-12-15T10:25:31.109Z,24.17
2022-12-15T10:28:31.667Z,33.60
2022-12-15T10:31:05.518Z,27.07
2022-12-15T10:33:40.623Z,31.73
2022-12-15T10:36:12.563Z,27.43
2022-12-15T10:38:50.429Z,31.63
2022-12-15T10:41:31.689Z,34.20
2022-12-15T10:43:58.894Z,35.37
2022-12-15T10:46:32.976Z,27.83
2022-12-15T10:49:24.635Z,25.93
2022-12-15T10:51:57.370Z,27.37
2022-12-15T10:54:30.877Z,30.97
2022-12-15T10:57:03.547Z,24.80
2022-12-15T10:59:31.937Z,38.33
2022-12-15T11:02:33.665Z,27.13
2022-12-15T11:05:02.275Z,27.30
2022-12-15T11:07:40.957Z,38.77
2022-12-15T11:10:26.253Z,29.70
2022-12-15T11:13:15.640Z,27.40
2022-12-15T11:15:53.431Z,30.27
2022-12-15T11:18:58.906Z,23.73
2022-12-15T11:21:34.366Z,27.53
2022-12-15T11:24:33.066Z,39.67
2022-12-15T11:27:36.153Z,28.63
2022-12-15T11:30:19.205Z,29.73
2022-12-15T11:32:53.748Z,30.37
2022-12-15T11:35:46.232Z,25.80
2022-12-15T11:39:06.978Z,28.20
2022-12-15T11:42:07.379Z,25.20
2022-12-15T11:44:51.627Z,28.23
2022-12-15T11:47:45.043Z,25.10
2022-12-15T11:50:36.994Z,24.67
2022-12-15T11:53:21.441Z,23.83
2022-12-15T11:56:24.362Z,20.53
2022-12-15T11:59:20.314Z,24.20
2022-12-15T12:02:25.113Z,21.63
2022-12-15T12:05:39.893Z,24.43
2022-12-15T12:08:32.745Z,25.17
2022-12-15T12:11:38.837Z,30.23
2022-12-15T12:14:32.536Z,24.93
2022-12-15T12:17:08.528Z,24.40
2022-12-15T12:19:45.835Z,30.27
2022-12-15T12:22:38.374Z,26.33
2022-12-15T12:25:17.087Z,33.80
2022-12-15T12:28:02.083Z,23.63
2022-12-15T12:30:50.428Z,28.43
2022-12-15T12:33:32.943Z,27.67
2022-12-15T12:36:14.611Z,28.03
2022-12-15T12:38:56.181Z,23.97
2022-12-15T12:41:47.163Z,30.20
2022-12-15T12:44:31.299Z,26.30
2022-12-15T12:47:06.529Z,22.77
2022-12-15T12:49:56.597Z,35.40
2022-12-15T12:52:37.025Z,31.57
2022-12-15T12:55:40.693Z,29.40
2022-12-15T12:58:32.742Z,24.93
2022-12-15T13:01:33.256Z,26.10
2022-12-15T13:04:34.052Z,31.57
2022-12-15T13:07:03.520Z,24.30
2022-12-15T13:09:44.569Z,24.13
2022-12-15T13:12:52.886Z,30.40
2022-12-15T13:15:42.811Z,29.07
2022-12-15T13:18:20.617Z,29.57
2022-12-15T13:23:41.673Z,32.73
2022-12-15T13:26:10.848Z,25.07
2022-12-15T13:28:45.781Z,34.50
2022-12-15T13:31:19.525Z,34.37
2022-12-15T13:34:13.377Z,30.00
2022-12-15T13:36:55.509Z,36.07
2022-12-15T13:39:34.390Z,30.77
2022-12-15T13:42:34.066Z,36.10
2022-12-15T13:45:27.514Z,33.33
2022-12-15T13:47:56.239Z,30.93
2022-12-15T13:50:33.462Z,31.03
2022-12-15T13:53:20.068Z,33.03
2022-12-15T13:56:03.988Z,32.13
2022-12-15T13:58:39.555Z,31.03
2022-12-15T14:01:20.199Z,33.60
2022-12-15T14:04:18.773Z,28.20
2022-12-15T14:07:08.338Z,29.57
2022-12-15T14:09:51.630Z,27.23
2022-12-15T14:12:35.477Z,28.30
2022-12-15T14:15:05.091Z,31.50
2022-12-15T14:17:38.489Z,30.90
2022-12-15T14:20:39.930Z,32.90
2022-12-15T14:24:37.396Z,28.60
2022-12-15T14:26:48.011Z,31.33
2022-12-15T14:29:28.211Z,29.93
2022-12-15T14:32:28.812Z,31.27
2022-12-15T14:35:20.968Z,29.60
2022-12-15T14:37:53.959Z,26.93
2022-12-15T14:40:26.570Z,29.87
2022-12-15T14:42:55.830Z,28.13
2022-12-15T14:45:27.037Z,34.70
2022-12-15T14:48:21.550Z,31.13
2022-12-15T14:50:48.877Z,27.73
2022-12-15T14:53:20.553Z,30.57
2022-12-15T14:55:47.782Z,28.03
2022-12-15T14:58:36.986Z,33.93
2022-12-15T15:01:16.226Z,28.33
2022-12-15T15:03:07.443Z,29.93
2022-12-15T15:03:43.042Z,29.90
2022-12-15T15:06:18.735Z,35.73
2022-12-15T15:08:51.569Z,41.00
2022-12-15T15:11:40.735Z,39.20
2022-12-15T15:14:18.473Z,36.77
2022-12-15T15:16:46.488Z,34.10
2022-12-15T15:19:22.679Z,35.53
2022-12-15T15:21:50.262Z,34.13
2022-12-15T15:24:32.494Z,39.40
2022-12-15T15:27:22.701Z,34.90
2022-12-15T15:29:49.799Z,40.47
2022-12-15T15:32:25.251Z,58.40
2022-12-15T15:34:55.538Z,37.07
2022-12-15T15:37:25.887Z,43.53
2022-12-15T15:39:55.258Z,43.50
2022-12-15T15:42:26.672Z,36.43
2022-12-15T15:45:00.065Z,42.83
2022-12-15T15:47:27.559Z,48.20
2022-12-15T15:49:58.663Z,54.97
2022-12-15T15:52:28.542Z,48.80
2022-12-15T15:54:55.485Z,50.40
2022-12-15T15:57:23.435Z,50.57
2022-12-15T15:59:51.182Z,46.10
2022-12-15T16:02:18.309Z,48.87
2022-12-15T16:04:46.041Z,66.77
2022-12-15T16:07:24.122Z,58.10
2022-12-15T16:09:53.540Z,51.43
2022-12-15T16:12:30.225Z,51.20
2022-12-15T16:14:57.320Z,63.03
2022-12-15T16:17:24.238Z,78.07
2022-12-15T16:19:51.091Z,60.60
2022-12-15T16:22:20.838Z,68.17
2022-12-15T16:24:49.015Z,60.77
2022-12-15T16:27:16.437Z,66.03
2022-12-15T16:29:43.676Z,56.93
2022-12-15T16:32:12.598Z,61.90
2022-12-15T16:34:39.559Z,57.53
2022-12-15T16:37:14.544Z,69.10
2022-12-15T16:39:43.805Z,61.03
2022-12-15T16:42:12.351Z,60.23
2022-12-15T16:44:39.376Z,52.90
2022-12-15T16:47:06.350Z,64.40
2022-12-15T16:49:39.856Z,63.10
2022-12-15T16:52:17.519Z,65.67
2022-12-15T16:54:48.025Z,59.03
2022-12-15T16:57:16.488Z,57.40
2022-12-15T16:59:43.552Z,64.00
2022-12-15T17:02:28.562Z,67.20
2022-12-15T17:04:56.100Z,63.80
2022-12-15T17:07:26.479Z,70.00
2022-12-15T17:09:53.520Z,82.43
2022-12-15T17:12:20.578Z,150.37
2022-12-15T17:14:47.699Z,119.07
2022-12-15T17:17:17.315Z,103.60
2022-12-15T17:20:11.856Z,109.10
2022-12-15T17:22:33.503Z,92.50
2022-12-15T17:25:03.039Z,88.40
2022-12-15T17:27:30.451Z,84.23
2022-12-15T17:29:59.125Z,79.77
2022-12-15T17:32:26.898Z,86.23
2022-12-15T17:34:53.867Z,102.30
2022-12-15T17:37:20.871Z,90.00
2022-12-15T17:39:51.396Z,87.00
2022-12-15T17:42:20.465Z,89.87
2022-12-15T17:44:48.884Z,85.83
2022-12-15T17:47:19.668Z,81.47
2022-12-15T17:49:47.466Z,88.17
2022-12-15T17:52:40.548Z,89.97
2022-12-15T17:55:21.354Z,97.03
2022-12-15T17:57:48.764Z,98.00
2022-12-15T18:00:25.943Z,94.63
2022-12-15T18:02:55.203Z,84.13
2022-12-15T18:05:25.435Z,96.40
2022-12-15T18:07:55.732Z,90.43
2022-12-15T18:10:28.334Z,88.23
2022-12-15T18:12:55.818Z,110.17
2022-12-15T18:15:25.937Z,98.40
2022-12-15T18:17:53.028Z,98.17
2022-12-15T18:20:20.807Z,91.00
2022-12-15T18:22:49.846Z,99.43
2022-12-15T18:25:22.955Z,100.17
2022-12-15T18:27:50.114Z,93.00
2022-12-15T18:30:19.794Z,101.67
2022-12-15T18:32:48.722Z,100.93
2022-12-15T18:35:20.047Z,107.83
2022-12-15T18:37:47.777Z,104.33
2022-12-15T18:40:17.035Z,103.93
2022-12-15T18:42:45.867Z,102.70
2022-12-15T18:45:27.936Z,116.40
2022-12-15T18:47:55.366Z,111.97
2022-12-15T18:50:26.453Z,111.77
2022-12-15T18:53:04.334Z,123.63
2022-12-15T18:55:31.917Z,120.70
2022-12-15T18:58:00.571Z,116.50
2022-12-15T19:00:29.640Z,108.17
2022-12-15T19:03:01.246Z,103.40
2022-12-15T19:05:29.344Z,101.67
2022-12-15T19:08:20.237Z,92.53
2022-12-15T19:11:08.497Z,102.47
2022-12-15T19:13:37.847Z,100.13
2022-12-15T19:16:07.824Z,95.80
2022-12-15T19:18:53.547Z,107.73
2022-12-15T19:21:50.606Z,106.70
2022-12-15T19:24:41.821Z,94.97
2022-12-15T19:27:12.960Z,115.27
2022-12-15T19:29:41.738Z,130.00
2022-12-15T19:32:23.630Z,128.97
2022-12-15T19:34:51.044Z,118.80
2022-12-15T19:37:27.870Z,129.23
2022-12-15T19:39:57.001Z,129.40
2022-12-15T19:42:37.750Z,123.53
2022-12-15T19:45:24.083Z,118.90
2022-12-15T19:47:51.165Z,129.03
2022-12-15T19:50:31.277Z,132.13
2022-12-15T19:53:00.989Z,130.30
2022-12-15T19:55:34.049Z,127.60
2022-12-15T19:58:14.965Z,133.63
2022-12-15T20:00:42.182Z,137.10
2022-12-15T20:03:09.229Z,129.07
2022-12-15T20:05:36.954Z,134.30
2022-12-15T20:08:07.326Z,130.73
2022-12-15T20:10:34.329Z,122.03
2022-12-15T20:13:03.443Z,132.23
2022-12-15T20:15:30.426Z,113.57
2022-12-15T20:17:58.001Z,130.60
2022-12-15T20:20:29.407Z,122.57
2022-12-15T20:23:01.330Z,110.80
2022-12-15T20:25:32.492Z,113.23
2022-12-15T20:28:00.887Z,111.83
2022-12-15T20:30:35.568Z,109.47
2022-12-15T20:33:05.622Z,102.83
2022-12-15T20:35:35.672Z,96.53
2022-12-15T20:38:32.835Z,99.83
2022-12-15T20:41:01.599Z,103.57
2022-12-15T20:43:31.961Z,110.03
2022-12-15T20:46:07.699Z,100.30
2022-12-15T20:48:36.932Z,101.90
2022-12-15T20:51:09.578Z,94.77
2022-12-15T20:53:40.992Z,92.77
2022-12-15T20:56:11.193Z,100.90
2022-12-15T20:58:41.977Z,98.87
2022-12-15T21:01:45.041Z,104.67
2022-12-15T21:04:26.656Z,111.73
2022-12-15T21:06:55.652Z,127.73
2022-12-15T21:09:26.151Z,118.43
2022-12-15T21:11:55.232Z,123.80
2022-12-15T21:14:23.988Z,128.60
2022-12-15T21:16:51.211Z,121.47
2022-12-15T21:19:21.334Z,128.03
2022-12-15T21:24:38.742Z,119.83
2022-12-15T21:27:07.143Z,119.73
2022-12-15T21:29:36.226Z,113.43
2022-12-15T21:32:03.484Z,118.53
2022-12-15T21:34:30.509Z,133.13
2022-12-15T21:36:58.101Z,133.50
2022-12-15T21:39:31.146Z,134.43
2022-12-15T21:42:13.387Z,136.40
2022-12-15T21:44:42.001Z,118.40
2022-12-15T21:47:47.969Z,114.70
2022-12-15T21:50:16.702Z,105.43
2022-12-15T21:52:45.450Z,111.00
2022-12-15T21:55:21.964Z,112.10
2022-12-15T21:57:49.122Z,95.03
2022-12-15T22:00:19.670Z,92.67
2022-12-15T22:02:48.479Z,85.60
2022-12-15T22:05:22.471Z,92.27
2022-12-15T22:07:50.628Z,95.93
2022-12-15T22:10:19.954Z,92.30
2022-12-15T22:15:38.963Z,102.77
2022-12-15T22:18:12.089Z,101.70
2022-12-15T22:20:39.121Z,105.63
2022-12-15T22:23:06.197Z,118.87
2022-12-15T22:25:33.323Z,118.87
2022-12-15T22:28:02.406Z,106.53
2022-12-15T22:30:29.490Z,113.23
2022-12-15T22:32:56.488Z,119.57
2022-12-15T22:35:26.403Z,112.87
2022-12-15T22:37:56.797Z,118.87
2022-12-15T22:40:24.707Z,114.67
2022-12-15T22:42:57.208Z,116.77
2022-12-15T22:45:24.541Z,120.27
2022-12-15T22:47:53.432Z,121.20
2022-12-15T22:50:26.410Z,105.90
2022-12-15T22:52:55.251Z,114.70
2022-12-15T22:55:24.651Z,117.77
2022-12-15T22:58:02.609Z,104.30
2022-12-15T23:00:29.584Z,104.50
2022-12-15T23:02:59.224Z,100.47
2022-12-15T23:05:29.711Z,98.97
2022-12-15T23:07:56.987Z,107.87
2022-12-15T23:10:42.481Z,105.63
2022-12-15T23:13:09.571Z,111.17
2022-12-15T23:15:54.931Z,113.10
2022-12-15T23:18:21.916Z,104.20
2022-12-15T23:20:49.079Z,106.13
2022-12-15T23:23:16.030Z,93.77
2022-12-15T23:25:43.952Z,108.90
2022-12-15T23:28:13.453Z,97.00
2022-12-15T23:30:40.567Z,100.00
2022-12-15T23:33:07.497Z,103.23
2022-12-15T23:35:34.455Z,93.60
2022-12-15T23:38:01.482Z,97.70
2022-12-15T23:40:28.502Z,102.50
2022-12-15T23:42:55.473Z,103.63
2022-12-15T23:45:22.557Z,94.43
2022-12-15T23:47:49.736Z,90.83
2022-12-15T23:50:17.105Z,100.70
2022-12-15T23:52:44.368Z,111.07
2022-12-15T23:55:12.987Z,95.93
2022-12-15T23:57:40.248Z,93.87
